createdAt,value
2023-01-15T00:02:58.354Z,87.91
2023-01-15T00:08:00.127Z,87.70
2023-01-15T00:13:01.956Z,88.32
2023-01-15T00:18:04.320Z,88.63
2023-01-15T00:23:05.983Z,87.99
2023-01-15T00:28:07.605Z,88.06
2023-01-15T00:33:10.060Z,88.42
2023-01-15T00:38:11.707Z,88.38
2023-01-15T00:43:13.388Z,87.96
2023-01-15T00:48:15.089Z,87.67
2023-01-15T00:53:17.220Z,87.81
2023-01-15T00:58:18.894Z,87.36
2023-01-15T01:03:20.628Z,87.29
2023-01-15T01:08:22.320Z,87.09
2023-01-15T01:13:24.133Z,87.37
2023-01-15T01:18:26.210Z,87.86
2023-01-15T01:23:27.884Z,87.69
2023-01-15T01:28:29.723Z,87.68
2023-01-15T01:33:31.338Z,87.72
2023-01-15T01:38:33.080Z,88.14
2023-01-15T01:43:59.839Z,88.60
2023-01-15T01:49:09.452Z,88.67
2023-01-15T01:54:14.381Z,89.50
2023-01-15T01:59:19.559Z,89.28
2023-01-15T02:04:25.923Z,89.40
2023-01-15T02:09:28.683Z,89.52
2023-01-15T02:14:39.013Z,89.85
2023-01-15T02:19:59.340Z,89.64
2023-01-15T02:25:08.272Z,89.38
2023-01-15T02:30:34.196Z,89.14
2023-01-15T02:35:41.454Z,89.38
2023-01-15T02:40:49.675Z,89.19
2023-01-15T02:45:57.807Z,89.07
2023-01-15T02:51:14.362Z,89.12
2023-01-15T02:56:19.617Z,89.03
2023-01-15T03:01:31.529Z,89.10
2023-01-15T03:06:44.114Z,89.29
2023-01-15T03:11:55.358Z,89.24
2023-01-15T03:17:02.978Z,89.30
2023-01-15T03:22:18.261Z,89.09
2023-01-15T03:27:21.243Z,88.55
2023-01-15T03:32:29.172Z,89.17
2023-01-15T03:37:31.892Z,88.80
2023-01-15T03:42:45.615Z,89.25
2023-01-15T03:48:02.918Z,89.19
2023-01-15T03:53:14.672Z,89.15
2023-01-15T03:58:41.500Z,89.26
2023-01-15T04:03:48.618Z,88.51
2023-01-15T04:08:51.258Z,88.31
2023-01-15T04:13:54.595Z,88.38
2023-01-15T04:19:06.149Z,88.54
2023-01-15T04:24:10.536Z,88.42
2023-01-15T04:29:12.322Z,88.15
2023-01-15T04:34:13.999Z,88.27
2023-01-15T04:39:15.675Z,87.78
2023-01-15T04:44:17.366Z,87.58
2023-01-15T04:49:19.065Z,87.67
2023-01-15T04:54:22.617Z,87.41
2023-01-15T04:59:26.517Z,87.14
2023-01-15T05:04:28.375Z,87.54
2023-01-15T05:09:30.391Z,87.30
2023-01-15T05:14:32.139Z,87.25
2023-01-15T05:19:33.846Z,87.25
2023-01-15T05:24:35.539Z,87.06
2023-01-15T05:29:37.404Z,86.88
2023-01-15T05:34:39.061Z,87.49
2023-01-15T05:39:40.725Z,87.30
2023-01-15T05:44:42.564Z,87.01
2023-01-15T05:49:44.206Z,86.77
2023-01-15T05:54:46.101Z,87.15
2023-01-15T05:59:50.419Z,87.08
2023-01-15T06:04:52.072Z,87.47
2023-01-15T06:09:53.695Z,87.67
2023-01-15T06:14:55.331Z,87.34
2023-01-15T06:19:57.126Z,87.63
2023-01-15T06:24:58.883Z,87.22
2023-01-15T06:30:00.527Z,87.66
2023-01-15T06:35:02.400Z,87.64
2023-01-15T06:40:04.786Z,87.26
2023-01-15T06:45:25.419Z,87.23
2023-01-15T06:50:27.152Z,87.07
2023-01-15T06:55:28.755Z,87.56
2023-01-15T07:00:30.745Z,87.04
2023-01-15T07:05:32.447Z,87.06
2023-01-15T07:10:35.481Z,87.04
2023-01-15T07:15:40.240Z,87.36
2023-01-15T07:20:42.056Z,87.14
2023-01-15T07:25:43.701Z,87.41
2023-01-15T07:30:45.294Z,87.69
2023-01-15T07:35:47.078Z,87.92
2023-01-15T07:41:09.021Z,87.84
2023-01-15T07:46:30.431Z,88.61
2023-01-15T07:51:32.101Z,88.86
2023-01-15T07:56:34.146Z,89.53
2023-01-15T08:01:35.827Z,90.54
2023-01-15T08:06:37.736Z,91.67
2023-01-15T08:11:57.941Z,91.71
2023-01-15T08:16:59.776Z,92.33
2023-01-15T08:22:01.772Z,92.32
2023-01-15T08:27:03.718Z,92.38
2023-01-15T08:32:05.773Z,92.94
2023-01-15T08:37:07.550Z,92.94
2023-01-15T08:42:09.281Z,93.69
2023-01-15T08:47:10.879Z,93.41
2023-01-15T08:52:12.557Z,94.29
2023-01-15T08:57:14.432Z,93.57
2023-01-15T09:02:17.659Z,93.36
2023-01-15T09:07:19.417Z,93.54
2023-01-15T09:12:24.800Z,93.60
2023-01-15T09:17:26.444Z,92.92
2023-01-15T09:22:30.846Z,92.65
2023-01-15T09:27:34.390Z,92.33
2023-01-15T09:32:36.015Z,92.55
2023-01-15T09:37:37.688Z,92.99
2023-01-15T09:42:57.651Z,92.63
2023-01-15T09:48:05.350Z,92.33
2023-01-15T09:53:18.087Z,92.13
2023-01-15T09:58:24.836Z,92.19
2023-01-15T10:03:47.367Z,92.26
2023-01-15T10:08:50.771Z,91.88
2023-01-15T10:14:15.400Z,91.87
2023-01-15T10:19:17.077Z,92.08
2023-01-15T10:24:29.349Z,91.67
2023-01-15T10:29:45.321Z,91.85
2023-01-15T10:35:13.316Z,92.30
2023-01-15T10:40:21.767Z,91.74
2023-01-15T10:45:30.196Z,91.42
2023-01-15T10:50:32.729Z,91.71
2023-01-15T10:55:46.704Z,91.69
2023-01-15T11:00:55.115Z,91.35
2023-01-15T11:05:57.025Z,91.54
2023-01-15T11:11:14.834Z,91.95
2023-01-15T11:16:41.753Z,91.97
2023-01-15T11:21:44.996Z,91.99
2023-01-15T11:26:52.769Z,91.42
2023-01-15T11:31:54.616Z,91.64
2023-01-15T11:37:06.274Z,92.05
2023-01-15T11:42:35.204Z,91.88
2023-01-15T11:47:55.174Z,91.48
2023-01-15T11:52:57.426Z,93.24
2023-01-15T11:57:59.229Z,93.22
2023-01-15T12:03:12.960Z,93.17
2023-01-15T12:08:29.072Z,93.33
2023-01-15T12:14:01.127Z,93.68
2023-01-15T12:19:31.118Z,94.09
2023-01-15T12:24:47.742Z,94.22
2023-01-15T12:29:54.755Z,94.15
2023-01-15T12:35:02.409Z,94.31
2023-01-15T12:40:28.027Z,95.03
2023-01-15T12:45:41.475Z,95.47
2023-01-15T12:50:47.788Z,95.43
2023-01-15T12:56:07.270Z,95.37
2023-01-15T13:01:11.726Z,96.15
2023-01-15T13:06:14.337Z,96.55
2023-01-15T13:11:16.024Z,97.07
2023-01-15T13:16:24.028Z,97.49
2023-01-15T13:21:28.764Z,97.78
2023-01-15T13:27:07.885Z,97.39
2023-01-15T13:32:23.653Z,96.70
2023-01-15T13:37:32.841Z,96.76
2023-01-15T13:42:37.642Z,96.87
2023-01-15T13:47:45.579Z,96.76
2023-01-15T13:52:47.301Z,96.62
2023-01-15T13:57:49.090Z,96.34
2023-01-15T14:02:59.078Z,96.26
2023-01-15T14:08:02.960Z,96.28
2023-01-15T14:13:49.119Z,96.95
2023-01-15T14:19:08.185Z,97.41
2023-01-15T14:24:18.924Z,97.36
2023-01-15T14:29:47.106Z,96.94
2023-01-15T14:35:02.819Z,98.00
2023-01-15T14:40:06.282Z,97.69
2023-01-15T14:45:19.507Z,97.46
2023-01-15T14:50:24.668Z,97.84
2023-01-15T14:55:26.823Z,97.63
2023-01-15T15:00:37.013Z,97.36
2023-01-15T15:05:43.224Z,98.08
2023-01-15T15:10:49.943Z,98.05
2023-01-15T15:16:16.706Z,97.91
2023-01-15T15:21:24.902Z,97.88
2023-01-15T15:26:30.976Z,97.36
2023-01-15T15:31:37.473Z,97.81
2023-01-15T15:36:39.888Z,98.09
2023-01-15T15:42:03.499Z,97.70
2023-01-15T15:47:40.604Z,99.09
2023-01-15T15:52:44.642Z,99.64
2023-01-15T15:57:57.106Z,99.52
2023-01-15T16:03:05.277Z,99.95
2023-01-15T16:08:16.072Z,100.00
2023-01-15T16:13:32.057Z,100.00
2023-01-15T16:18:41.160Z,100.00
2023-01-15T16:23:45.975Z,100.00
2023-01-15T16:28:55.050Z,100.00
2023-01-15T16:33:58.919Z,100.00
2023-01-15T16:39:01.931Z,100.00
2023-01-15T16:44:06.523Z,100.00
2023-01-15T16:49:23.491Z,100.00
2023-01-15T16:54:31.116Z,100.00
2023-01-15T16:59:32.843Z,100.00
2023-01-15T17:04:36.617Z,100.00
2023-01-15T17:09:44.144Z,100.00
2023-01-15T17:14:45.799Z,100.00
2023-01-15T17:19:47.974Z,100.00
2023-01-15T17:24:52.031Z,100.00
2023-01-15T17:29:54.312Z,100.00
2023-01-15T17:34:56.114Z,100.00
2023-01-15T17:39:58.147Z,100.00
2023-01-15T17:44:59.983Z,100.00
2023-01-15T17:50:02.070Z,100.00
2023-01-15T17:55:23.039Z,100.00
2023-01-15T18:00:43.804Z,100.00
2023-01-15T18:05:48.752Z,100.00
2023-01-15T18:10:50.537Z,99.68
2023-01-15T18:15:52.863Z,98.26
2023-01-15T18:20:54.481Z,97.48
2023-01-15T18:25:57.316Z,97.20
2023-01-15T18:30:58.937Z,96.64
2023-01-15T18:36:12.802Z,97.13
2023-01-15T18:41:36.228Z,97.02
2023-01-15T18:46:43.941Z,97.21
2023-01-15T18:52:05.553Z,95.25
2023-01-15T18:57:07.182Z,95.52
2023-01-15T19:02:09.883Z,95.27
2023-01-15T19:07:11.792Z,95.04
2023-01-15T19:12:15.136Z,94.11
2023-01-15T19:17:38.837Z,94.08
2023-01-15T19:22:58.807Z,94.41
2023-01-15T19:28:00.621Z,93.48
2023-01-15T19:33:02.413Z,92.96
2023-01-15T19:38:08.138Z,91.96
2023-01-15T19:43:29.675Z,91.83
2023-01-15T19:48:52.476Z,92.75
2023-01-15T19:53:54.080Z,91.85
2023-01-15T19:58:56.080Z,91.46
2023-01-15T20:03:57.896Z,91.44
2023-01-15T20:08:59.556Z,91.04
2023-01-15T20:14:01.179Z,91.72
2023-01-15T20:19:03.087Z,91.09
2023-01-15T20:24:05.137Z,91.59
2023-01-15T20:29:06.744Z,91.73
2023-01-15T20:34:08.334Z,90.29
2023-01-15T20:39:10.142Z,89.51
2023-01-15T20:44:30.840Z,89.10
2023-01-15T20:49:32.658Z,89.35
2023-01-15T20:54:34.732Z,89.73
2023-01-15T20:59:36.331Z,89.28
2023-01-15T21:04:38.026Z,88.06
2023-01-15T21:09:39.657Z,87.97
2023-01-15T21:14:41.315Z,87.71
2023-01-15T21:19:42.997Z,87.03
2023-01-15T21:24:44.768Z,87.03
2023-01-15T21:29:48.105Z,87.28
2023-01-15T21:34:49.873Z,87.67
2023-01-15T21:39:51.495Z,87.91
2023-01-15T21:44:53.335Z,87.11
2023-01-15T21:49:55.126Z,87.29
2023-01-15T21:54:57.661Z,87.43
2023-01-15T21:59:59.522Z,87.76
2023-01-15T22:05:01.808Z,87.82
2023-01-15T22:10:03.821Z,88.57
2023-01-15T22:15:05.905Z,87.81
2023-01-15T22:20:08.567Z,88.35
2023-01-15T22:25:13.485Z,88.64
2023-01-15T22:30:16.630Z,88.14
2023-01-15T22:35:18.403Z,87.80
2023-01-15T22:40:20.215Z,87.56
2023-01-15T22:45:23.129Z,87.56
2023-01-15T22:50:24.933Z,87.62
2023-01-15T22:55:26.524Z,87.14
2023-01-15T23:00:28.430Z,87.20
2023-01-15T23:05:30.173Z,87.29
2023-01-15T23:10:31.853Z,87.22
2023-01-15T23:15:33.695Z,86.16
2023-01-15T23:20:35.344Z,86.28
2023-01-15T23:25:36.938Z,86.62
2023-01-15T23:30:38.766Z,86.60
2023-01-15T23:35:40.384Z,86.38
2023-01-15T23:40:42.683Z,86.81
2023-01-15T23:46:02.933Z,87.46
2023-01-15T23:51:04.684Z,87.86
2023-01-15T23:56:07.101Z,88.04
